sensor_id;sensor_type;location;lat;lon;timestamp;P1;durP1;ratioP1;P2;durP2;ratioP2
58665;SDS011;44436;52.872;6.520;2022-07-23T00:00:10;7.65;;;3.40;;
58665;SDS011;44436;52.872;6.520;2022-07-23T00:02:36;6.32;;;3.70;;
58665;SDS011;44436;52.872;6.520;2022-07-23T00:05:02;4.10;;;3.30;;
58665;SDS011;44436;52.872;6.520;2022-07-23T00:07:28;8.27;;;3.85;;
58665;SDS011;44436;52.872;6.520;2022-07-23T00:09:54;6.95;;;3.78;;
58665;SDS011;44436;52.872;6.520;2022-07-23T00:12:20;6.03;;;3.53;;
58665;SDS011;44436;52.872;6.520;2022-07-23T00:14:46;4.28;;;3.30;;
58665;SDS011;44436;52.872;6.520;2022-07-23T00:17:11;5.07;;;3.80;;
58665;SDS011;44436;52.872;6.520;2022-07-23T00:19:37;9.18;;;3.70;;
58665;SDS011;44436;52.872;6.520;2022-07-23T00:22:03;8.52;;;3.80;;
58665;SDS011;44436;52.872;6.520;2022-07-23T00:24:28;5.40;;;3.40;;
58665;SDS011;44436;52.872;6.520;2022-07-23T00:26:54;6.38;;;3.85;;
58665;SDS011;44436;52.872;6.520;2022-07-23T00:29:20;5.55;;;3.53;;
58665;SDS011;44436;52.872;6.520;2022-07-23T00:31:45;7.50;;;4.00;;
58665;SDS011;44436;52.872;6.520;2022-07-23T00:34:11;10.48;;;4.15;;
58665;SDS011;44436;52.872;6.520;2022-07-23T00:36:36;6.28;;;3.38;;
58665;SDS011;44436;52.872;6.520;2022-07-23T00:39:03;8.40;;;3.72;;
58665;SDS011;44436;52.872;6.520;2022-07-23T00:41:28;4.50;;;3.22;;
58665;SDS011;44436;52.872;6.520;2022-07-23T00:43:54;8.02;;;3.78;;
58665;SDS011;44436;52.872;6.520;2022-07-23T00:46:20;5.88;;;3.90;;
58665;SDS011;44436;52.872;6.520;2022-07-23T00:48:46;5.40;;;3.42;;
58665;SDS011;44436;52.872;6.520;2022-07-23T00:51:12;9.15;;;4.20;;
58665;SDS011;44436;52.872;6.520;2022-07-23T00:53:39;6.22;;;4.25;;
58665;SDS011;44436;52.872;6.520;2022-07-23T00:56:05;7.40;;;4.43;;
58665;SDS011;44436;52.872;6.520;2022-07-23T00:58:31;5.75;;;4.32;;
58665;SDS011;44436;52.872;6.520;2022-07-23T01:01:00;8.20;;;4.70;;
58665;SDS011;44436;52.872;6.520;2022-07-23T01:03:25;7.57;;;4.63;;
58665;SDS011;44436;52.872;6.520;2022-07-23T01:05:51;7.53;;;4.78;;
58665;SDS011;44436;52.872;6.520;2022-07-23T01:08:17;8.98;;;4.50;;
58665;SDS011;44436;52.872;6.520;2022-07-23T01:10:43;8.25;;;4.70;;
58665;SDS011;44436;52.872;6.520;2022-07-23T01:13:09;8.85;;;4.25;;
58665;SDS011;44436;52.872;6.520;2022-07-23T01:15:36;6.28;;;4.45;;
58665;SDS011;44436;52.872;6.520;2022-07-23T01:18:03;6.32;;;4.53;;
58665;SDS011;44436;52.872;6.520;2022-07-23T01:20:29;6.53;;;4.57;;
58665;SDS011;44436;52.872;6.520;2022-07-23T01:22:55;7.38;;;4.25;;
58665;SDS011;44436;52.872;6.520;2022-07-23T01:25:21;5.88;;;4.25;;
58665;SDS011;44436;52.872;6.520;2022-07-23T01:27:48;6.50;;;4.63;;
58665;SDS011;44436;52.872;6.520;2022-07-23T01:30:16;4.55;;;4.03;;
58665;SDS011;44436;52.872;6.520;2022-07-23T01:32:42;8.82;;;4.35;;
58665;SDS011;44436;52.872;6.520;2022-07-23T01:35:08;10.05;;;4.25;;
58665;SDS011;44436;52.872;6.520;2022-07-23T01:37:34;8.50;;;4.50;;
58665;SDS011;44436;52.872;6.520;2022-07-23T01:40:00;6.38;;;4.18;;
58665;SDS011;44436;52.872;6.520;2022-07-23T01:42:26;7.90;;;4.40;;
58665;SDS011;44436;52.872;6.520;2022-07-23T01:44:52;8.57;;;4.75;;
58665;SDS011;44436;52.872;6.520;2022-07-23T01:47:17;6.22;;;4.30;;
58665;SDS011;44436;52.872;6.520;2022-07-23T01:49:43;6.45;;;4.05;;
58665;SDS011;44436;52.872;6.520;2022-07-23T01:52:08;5.57;;;4.35;;
58665;SDS011;44436;52.872;6.520;2022-07-23T01:54:37;7.88;;;4.63;;
58665;SDS011;44436;52.872;6.520;2022-07-23T01:57:04;6.47;;;4.38;;
58665;SDS011;44436;52.872;6.520;2022-07-23T01:59:30;8.32;;;4.45;;
58665;SDS011;44436;52.872;6.520;2022-07-23T02:01:56;6.03;;;4.70;;
58665;SDS011;44436;52.872;6.520;2022-07-23T02:04:23;6.30;;;3.92;;
58665;SDS011;44436;52.872;6.520;2022-07-23T02:06:49;9.23;;;4.43;;
58665;SDS011;44436;52.872;6.520;2022-07-23T02:09:15;6.15;;;3.75;;
58665;SDS011;44436;52.872;6.520;2022-07-23T02:11:41;6.60;;;4.28;;
58665;SDS011;44436;52.872;6.520;2022-07-23T02:14:07;4.30;;;3.90;;
58665;SDS011;44436;52.872;6.520;2022-07-23T02:16:33;5.15;;;3.95;;
58665;SDS011;44436;52.872;6.520;2022-07-23T02:18:58;6.97;;;3.90;;
58665;SDS011;44436;52.872;6.520;2022-07-23T02:21:24;5.03;;;4.03;;
58665;SDS011;44436;52.872;6.520;2022-07-23T02:23:49;5.45;;;4.00;;
58665;SDS011;44436;52.872;6.520;2022-07-23T02:26:15;5.10;;;3.67;;
58665;SDS011;44436;52.872;6.520;2022-07-23T02:28:41;8.20;;;4.07;;
58665;SDS011;44436;52.872;6.520;2022-07-23T02:31:07;5.72;;;4.20;;
58665;SDS011;44436;52.872;6.520;2022-07-23T02:33:32;7.95;;;4.20;;
58665;SDS011;44436;52.872;6.520;2022-07-23T02:35:59;4.00;;;3.60;;
58665;SDS011;44436;52.872;6.520;2022-07-23T02:38:25;5.32;;;3.83;;
58665;SDS011;44436;52.872;6.520;2022-07-23T02:40:50;7.13;;;4.10;;
58665;SDS011;44436;52.872;6.520;2022-07-23T02:43:16;6.68;;;3.95;;
58665;SDS011;44436;52.872;6.520;2022-07-23T02:45:42;5.82;;;4.22;;
58665;SDS011;44436;52.872;6.520;2022-07-23T02:48:07;5.35;;;4.05;;
58665;SDS011;44436;52.872;6.520;2022-07-23T02:50:33;5.47;;;4.43;;
58665;SDS011;44436;52.872;6.520;2022-07-23T02:52:58;6.57;;;4.25;;
58665;SDS011;44436;52.872;6.520;2022-07-23T02:55:24;7.57;;;4.60;;
58665;SDS011;44436;52.872;6.520;2022-07-23T02:57:50;5.30;;;4.00;;
58665;SDS011;44436;52.872;6.520;2022-07-23T03:00:15;4.95;;;4.22;;
58665;SDS011;44436;52.872;6.520;2022-07-23T03:02:41;8.43;;;4.32;;
58665;SDS011;44436;52.872;6.520;2022-07-23T03:05:07;6.65;;;4.65;;
58665;SDS011;44436;52.872;6.520;2022-07-23T03:07:33;4.82;;;3.90;;
58665;SDS011;44436;52.872;6.520;2022-07-23T03:09:58;5.63;;;4.63;;
58665;SDS011;44436;52.872;6.520;2022-07-23T03:12:24;7.30;;;4.20;;
58665;SDS011;44436;52.872;6.520;2022-07-23T03:14:50;7.75;;;4.60;;
58665;SDS011;44436;52.872;6.520;2022-07-23T03:17:15;6.63;;;4.45;;
58665;SDS011;44436;52.872;6.520;2022-07-23T03:19:41;5.63;;;4.28;;
58665;SDS011;44436;52.872;6.520;2022-07-23T03:22:07;7.57;;;4.30;;
58665;SDS011;44436;52.872;6.520;2022-07-23T03:24:33;7.50;;;4.88;;
58665;SDS011;44436;52.872;6.520;2022-07-23T03:27:17;7.03;;;4.65;;
58665;SDS011;44436;52.872;6.520;2022-07-23T03:29:43;4.80;;;3.92;;
58665;SDS011;44436;52.872;6.520;2022-07-23T03:32:08;7.68;;;4.70;;
58665;SDS011;44436;52.872;6.520;2022-07-23T03:34:34;7.82;;;4.25;;
58665;SDS011;44436;52.872;6.520;2022-07-23T03:37:00;6.97;;;4.50;;
58665;SDS011;44436;52.872;6.520;2022-07-23T03:39:26;5.80;;;3.85;;
58665;SDS011;44436;52.872;6.520;2022-07-23T03:41:52;4.63;;;4.05;;
58665;SDS011;44436;52.872;6.520;2022-07-23T03:44:17;7.43;;;4.45;;
58665;SDS011;44436;52.872;6.520;2022-07-23T03:46:43;4.93;;;3.47;;
58665;SDS011;44436;52.872;6.520;2022-07-23T03:49:09;19.08;;;5.18;;
58665;SDS011;44436;52.872;6.520;2022-07-23T03:51:34;6.28;;;3.90;;
58665;SDS011;44436;52.872;6.520;2022-07-23T03:54:00;3.50;;;3.20;;
58665;SDS011;44436;52.872;6.520;2022-07-23T03:56:26;5.63;;;3.85;;
58665;SDS011;44436;52.872;6.520;2022-07-23T03:58:51;6.05;;;4.15;;
58665;SDS011;44436;52.872;6.520;2022-07-23T04:01:17;4.88;;;3.80;;
58665;SDS011;44436;52.872;6.520;2022-07-23T04:03:42;8.93;;;3.90;;
58665;SDS011;44436;52.872;6.520;2022-07-23T04:06:08;8.90;;;3.80;;
58665;SDS011;44436;52.872;6.520;2022-07-23T04:08:34;7.63;;;3.30;;
58665;SDS011;44436;52.872;6.520;2022-07-23T04:10:59;4.68;;;3.13;;
58665;SDS011;44436;52.872;6.520;2022-07-23T04:13:25;4.25;;;3.53;;
58665;SDS011;44436;52.872;6.520;2022-07-23T04:15:51;5.90;;;3.35;;
58665;SDS011;44436;52.872;6.520;2022-07-23T04:18:17;4.35;;;3.70;;
58665;SDS011;44436;52.872;6.520;2022-07-23T04:20:46;6.85;;;3.97;;
58665;SDS011;44436;52.872;6.520;2022-07-23T04:23:11;6.03;;;4.40;;
58665;SDS011;44436;52.872;6.520;2022-07-23T04:25:37;6.28;;;3.50;;
58665;SDS011;44436;52.872;6.520;2022-07-23T04:28:03;6.15;;;3.70;;
58665;SDS011;44436;52.872;6.520;2022-07-23T04:30:29;3.70;;;3.30;;
58665;SDS011;44436;52.872;6.520;2022-07-23T04:32:55;6.90;;;3.42;;
58665;SDS011;44436;52.872;6.520;2022-07-23T04:35:20;6.07;;;3.40;;
58665;SDS011;44436;52.872;6.520;2022-07-23T04:37:46;8.38;;;3.30;;
58665;SDS011;44436;52.872;6.520;2022-07-23T04:40:12;5.20;;;3.45;;
58665;SDS011;44436;52.872;6.520;2022-07-23T04:42:38;4.38;;;2.90;;
58665;SDS011;44436;52.872;6.520;2022-07-23T04:45:04;6.93;;;3.15;;
58665;SDS011;44436;52.872;6.520;2022-07-23T04:47:30;4.40;;;3.47;;
58665;SDS011;44436;52.872;6.520;2022-07-23T04:49:56;4.65;;;3.40;;
58665;SDS011;44436;52.872;6.520;2022-07-23T04:52:23;4.40;;;3.10;;
58665;SDS011;44436;52.872;6.520;2022-07-23T04:54:48;5.60;;;3.30;;
58665;SDS011;44436;52.872;6.520;2022-07-23T04:57:14;5.00;;;3.33;;
58665;SDS011;44436;52.872;6.520;2022-07-23T04:59:40;7.45;;;3.33;;
58665;SDS011;44436;52.872;6.520;2022-07-23T05:02:06;6.25;;;3.42;;
58665;SDS011;44436;52.872;6.520;2022-07-23T05:04:31;7.68;;;3.72;;
58665;SDS011;44436;52.872;6.520;2022-07-23T05:06:57;10.35;;;4.53;;
58665;SDS011;44436;52.872;6.520;2022-07-23T05:09:23;8.93;;;3.63;;
58665;SDS011;44436;52.872;6.520;2022-07-23T05:11:49;5.93;;;4.07;;
58665;SDS011;44436;52.872;6.520;2022-07-23T05:14:15;7.60;;;4.38;;
58665;SDS011;44436;52.872;6.520;2022-07-23T05:16:40;7.45;;;4.50;;
58665;SDS011;44436;52.872;6.520;2022-07-23T05:19:06;9.32;;;4.18;;
58665;SDS011;44436;52.872;6.520;2022-07-23T05:21:32;9.85;;;4.95;;
58665;SDS011;44436;52.872;6.520;2022-07-23T05:23:58;9.27;;;4.43;;
58665;SDS011;44436;52.872;6.520;2022-07-23T05:26:24;7.32;;;4.43;;
58665;SDS011;44436;52.872;6.520;2022-07-23T05:28:50;8.10;;;4.50;;
58665;SDS011;44436;52.872;6.520;2022-07-23T05:31:15;6.93;;;4.45;;
58665;SDS011;44436;52.872;6.520;2022-07-23T05:33:41;7.78;;;4.70;;
58665;SDS011;44436;52.872;6.520;2022-07-23T05:36:07;8.85;;;4.38;;
58665;SDS011;44436;52.872;6.520;2022-07-23T05:38:34;8.75;;;4.25;;
58665;SDS011;44436;52.872;6.520;2022-07-23T05:41:00;10.38;;;5.07;;
58665;SDS011;44436;52.872;6.520;2022-07-23T05:43:25;11.48;;;4.40;;
58665;SDS011;44436;52.872;6.520;2022-07-23T05:45:51;10.93;;;4.97;;
58665;SDS011;44436;52.872;6.520;2022-07-23T05:48:17;9.43;;;4.88;;
58665;SDS011;44436;52.872;6.520;2022-07-23T05:50:43;8.85;;;5.32;;
58665;SDS011;44436;52.872;6.520;2022-07-23T05:53:08;11.13;;;4.68;;
58665;SDS011;44436;52.872;6.520;2022-07-23T05:55:34;12.32;;;4.93;;
58665;SDS011;44436;52.872;6.520;2022-07-23T05:58:00;8.30;;;4.85;;
58665;SDS011;44436;52.872;6.520;2022-07-23T06:00:26;9.52;;;4.55;;
58665;SDS011;44436;52.872;6.520;2022-07-23T06:02:52;7.43;;;4.47;;
58665;SDS011;44436;52.872;6.520;2022-07-23T06:05:18;9.57;;;4.07;;
58665;SDS011;44436;52.872;6.520;2022-07-23T06:07:43;7.35;;;3.63;;
58665;SDS011;44436;52.872;6.520;2022-07-23T06:10:09;6.57;;;3.83;;
58665;SDS011;44436;52.872;6.520;2022-07-23T06:12:35;6.97;;;4.03;;
58665;SDS011;44436;52.872;6.520;2022-07-23T06:15:02;7.43;;;4.00;;
58665;SDS011;44436;52.872;6.520;2022-07-23T06:17:28;7.00;;;3.65;;
58665;SDS011;44436;52.872;6.520;2022-07-23T06:19:54;8.02;;;3.63;;
58665;SDS011;44436;52.872;6.520;2022-07-23T06:22:21;6.13;;;3.30;;
58665;SDS011;44436;52.872;6.520;2022-07-23T06:24:47;5.97;;;3.47;;
58665;SDS011;44436;52.872;6.520;2022-07-23T06:27:13;4.82;;;2.63;;
58665;SDS011;44436;52.872;6.520;2022-07-23T06:29:39;8.40;;;2.63;;
58665;SDS011;44436;52.872;6.520;2022-07-23T06:32:06;4.80;;;2.10;;
58665;SDS011;44436;52.872;6.520;2022-07-23T06:34:32;5.68;;;1.95;;
58665;SDS011;44436;52.872;6.520;2022-07-23T06:36:58;8.30;;;1.80;;
58665;SDS011;44436;52.872;6.520;2022-07-23T06:39:25;4.10;;;1.50;;
58665;SDS011;44436;52.872;6.520;2022-07-23T06:41:50;4.20;;;1.52;;
58665;SDS011;44436;52.872;6.520;2022-07-23T06:44:16;14.88;;;2.70;;
58665;SDS011;44436;52.872;6.520;2022-07-23T06:46:42;4.30;;;1.50;;
58665;SDS011;44436;52.872;6.520;2022-07-23T06:49:08;4.05;;;1.75;;
58665;SDS011;44436;52.872;6.520;2022-07-23T06:51:34;4.05;;;1.30;;
58665;SDS011;44436;52.872;6.520;2022-07-23T06:53:59;4.90;;;1.60;;
58665;SDS011;44436;52.872;6.520;2022-07-23T06:56:25;6.75;;;1.50;;
58665;SDS011;44436;52.872;6.520;2022-07-23T06:58:51;5.75;;;1.50;;
58665;SDS011;44436;52.872;6.520;2022-07-23T07:01:17;3.15;;;1.23;;
58665;SDS011;44436;52.872;6.520;2022-07-23T07:03:42;5.07;;;1.73;;
58665;SDS011;44436;52.872;6.520;2022-07-23T07:06:08;5.78;;;1.40;;
58665;SDS011;44436;52.872;6.520;2022-07-23T07:08:34;5.43;;;1.20;;
58665;SDS011;44436;52.872;6.520;2022-07-23T07:10:59;2.45;;;1.00;;
58665;SDS011;44436;52.872;6.520;2022-07-23T07:13:25;4.40;;;1.10;;
58665;SDS011;44436;52.872;6.520;2022-07-23T07:15:51;1.75;;;0.90;;
58665;SDS011;44436;52.872;6.520;2022-07-23T07:18:16;5.60;;;1.15;;
58665;SDS011;44436;52.872;6.520;2022-07-23T07:20:42;3.17;;;0.85;;
58665;SDS011;44436;52.872;6.520;2022-07-23T07:23:07;4.45;;;0.75;;
58665;SDS011;44436;52.872;6.520;2022-07-23T07:25:33;3.67;;;0.85;;
58665;SDS011;44436;52.872;6.520;2022-07-23T07:27:59;2.97;;;0.70;;
58665;SDS011;44436;52.872;6.520;2022-07-23T07:30:24;3.03;;;1.00;;
58665;SDS011;44436;52.872;6.520;2022-07-23T07:32:50;3.13;;;0.70;;
58665;SDS011;44436;52.872;6.520;2022-07-23T07:35:16;3.72;;;1.17;;
58665;SDS011;44436;52.872;6.520;2022-07-23T07:37:41;1.38;;;0.90;;
58665;SDS011;44436;52.872;6.520;2022-07-23T07:40:07;2.35;;;0.90;;
58665;SDS011;44436;52.872;6.520;2022-07-23T07:42:33;1.55;;;0.52;;
58665;SDS011;44436;52.872;6.520;2022-07-23T07:44:59;3.45;;;0.90;;
58665;SDS011;44436;52.872;6.520;2022-07-23T07:47:25;2.45;;;0.77;;
58665;SDS011;44436;52.872;6.520;2022-07-23T07:49:51;3.42;;;0.77;;
58665;SDS011;44436;52.872;6.520;2022-07-23T07:52:16;1.13;;;0.50;;
58665;SDS011;44436;52.872;6.520;2022-07-23T07:54:42;1.15;;;0.68;;
58665;SDS011;44436;52.872;6.520;2022-07-23T07:57:08;4.13;;;0.95;;
58665;SDS011;44436;52.872;6.520;2022-07-23T07:59:34;3.90;;;0.55;;
58665;SDS011;44436;52.872;6.520;2022-07-23T08:02:00;2.03;;;0.70;;
58665;SDS011;44436;52.872;6.520;2022-07-23T08:04:26;2.00;;;0.70;;
58665;SDS011;44436;52.872;6.520;2022-07-23T08:06:52;1.70;;;0.63;;
58665;SDS011;44436;52.872;6.520;2022-07-23T08:09:17;5.32;;;0.90;;
58665;SDS011;44436;52.872;6.520;2022-07-23T08:11:43;3.15;;;0.60;;
58665;SDS011;44436;52.872;6.520;2022-07-23T08:14:08;2.30;;;0.73;;
58665;SDS011;44436;52.872;6.520;2022-07-23T08:16:36;5.72;;;0.60;;
58665;SDS011;44436;52.872;6.520;2022-07-23T08:19:02;4.78;;;0.70;;
58665;SDS011;44436;52.872;6.520;2022-07-23T08:21:27;1.75;;;0.52;;
58665;SDS011;44436;52.872;6.520;2022-07-23T08:23:53;1.42;;;0.50;;
58665;SDS011;44436;52.872;6.520;2022-07-23T08:26:19;3.97;;;0.60;;
58665;SDS011;44436;52.872;6.520;2022-07-23T08:28:44;2.78;;;0.63;;
58665;SDS011;44436;52.872;6.520;2022-07-23T08:31:10;3.05;;;0.57;;
58665;SDS011;44436;52.872;6.520;2022-07-23T08:33:36;2.60;;;0.85;;
58665;SDS011;44436;52.872;6.520;2022-07-23T08:36:03;1.65;;;0.50;;
58665;SDS011;44436;52.872;6.520;2022-07-23T08:38:29;4.22;;;0.70;;
58665;SDS011;44436;52.872;6.520;2022-07-23T08:40:55;1.65;;;0.50;;
58665;SDS011;44436;52.872;6.520;2022-07-23T08:43:26;1.00;;;0.50;;
58665;SDS011;44436;52.872;6.520;2022-07-23T08:45:54;1.35;;;0.60;;
58665;SDS011;44436;52.872;6.520;2022-07-23T08:48:23;1.58;;;0.60;;
58665;SDS011;44436;52.872;6.520;2022-07-23T08:50:52;1.20;;;0.40;;
58665;SDS011;44436;52.872;6.520;2022-07-23T08:53:20;1.95;;;0.75;;
58665;SDS011;44436;52.872;6.520;2022-07-23T08:55:47;2.45;;;0.80;;
58665;SDS011;44436;52.872;6.520;2022-07-23T08:58:18;1.95;;;0.60;;
58665;SDS011;44436;52.872;6.520;2022-07-23T09:00:45;1.75;;;0.70;;
58665;SDS011;44436;52.872;6.520;2022-07-23T09:03:15;2.95;;;0.82;;
58665;SDS011;44436;52.872;6.520;2022-07-23T09:13:24;1.17;;;0.45;;
58665;SDS011;44436;52.872;6.520;2022-07-23T09:15:53;2.13;;;0.73;;
58665;SDS011;44436;52.872;6.520;2022-07-23T09:18:28;1.70;;;0.50;;
58665;SDS011;44436;52.872;6.520;2022-07-23T09:23:36;3.35;;;0.63;;
58665;SDS011;44436;52.872;6.520;2022-07-23T09:26:06;4.75;;;0.50;;
58665;SDS011;44436;52.872;6.520;2022-07-23T09:28:49;1.67;;;0.60;;
58665;SDS011;44436;52.872;6.520;2022-07-23T09:31:17;1.85;;;0.60;;
58665;SDS011;44436;52.872;6.520;2022-07-23T09:33:42;2.13;;;0.30;;
58665;SDS011;44436;52.872;6.520;2022-07-23T09:36:08;1.38;;;0.55;;
58665;SDS011;44436;52.872;6.520;2022-07-23T09:38:34;0.68;;;0.57;;
58665;SDS011;44436;52.872;6.520;2022-07-23T09:41:12;1.08;;;0.30;;
58665;SDS011;44436;52.872;6.520;2022-07-23T09:43:38;2.40;;;0.60;;
58665;SDS011;44436;52.872;6.520;2022-07-23T09:49:12;0.73;;;0.30;;
58665;SDS011;44436;52.872;6.520;2022-07-23T09:51:43;2.47;;;0.50;;
58665;SDS011;44436;52.872;6.520;2022-07-23T09:54:24;0.85;;;0.50;;
58665;SDS011;44436;52.872;6.520;2022-07-23T09:56:52;3.10;;;0.70;;
58665;SDS011;44436;52.872;6.520;2022-07-23T09:59:18;3.38;;;0.55;;
58665;SDS011;44436;52.872;6.520;2022-07-23T10:01:50;2.45;;;0.70;;
58665;SDS011;44436;52.872;6.520;2022-07-23T10:04:17;1.02;;;0.30;;
58665;SDS011;44436;52.872;6.520;2022-07-23T10:06:43;2.35;;;0.70;;
58665;SDS011;44436;52.872;6.520;2022-07-23T10:09:11;2.50;;;0.63;;
58665;SDS011;44436;52.872;6.520;2022-07-23T10:11:41;1.38;;;0.70;;
58665;SDS011;44436;52.872;6.520;2022-07-23T10:14:07;0.93;;;0.50;;
58665;SDS011;44436;52.872;6.520;2022-07-23T10:16:33;1.42;;;0.70;;
58665;SDS011;44436;52.872;6.520;2022-07-23T10:18:59;1.73;;;0.55;;
58665;SDS011;44436;52.872;6.520;2022-07-23T10:21:40;2.08;;;0.60;;
58665;SDS011;44436;52.872;6.520;2022-07-23T10:29:36;1.17;;;0.60;;
58665;SDS011;44436;52.872;6.520;2022-07-23T10:37:28;2.45;;;0.70;;
58665;SDS011;44436;52.872;6.520;2022-07-23T10:42:38;2.97;;;0.98;;
58665;SDS011;44436;52.872;6.520;2022-07-23T10:45:28;3.78;;;0.90;;
58665;SDS011;44436;52.872;6.520;2022-07-23T10:47:54;1.85;;;0.88;;
58665;SDS011;44436;52.872;6.520;2022-07-23T10:50:25;1.08;;;0.55;;
58665;SDS011;44436;52.872;6.520;2022-07-23T10:53:11;1.95;;;0.80;;
58665;SDS011;44436;52.872;6.520;2022-07-23T10:58:07;3.13;;;0.95;;
58665;SDS011;44436;52.872;6.520;2022-07-23T11:00:34;1.50;;;0.65;;
58665;SDS011;44436;52.872;6.520;2022-07-23T11:03:01;1.80;;;0.85;;
58665;SDS011;44436;52.872;6.520;2022-07-23T11:05:47;1.73;;;1.00;;
58665;SDS011;44436;52.872;6.520;2022-07-23T11:08:14;2.88;;;1.15;;
58665;SDS011;44436;52.872;6.520;2022-07-23T11:13:36;2.30;;;0.88;;
58665;SDS011;44436;52.872;6.520;2022-07-23T11:18:52;1.65;;;0.90;;
58665;SDS011;44436;52.872;6.520;2022-07-23T11:26:40;2.10;;;0.90;;
58665;SDS011;44436;52.872;6.520;2022-07-23T11:31:57;6.82;;;1.27;;
58665;SDS011;44436;52.872;6.520;2022-07-23T11:34:29;1.27;;;0.90;;
58665;SDS011;44436;52.872;6.520;2022-07-23T11:36:56;2.75;;;1.15;;
58665;SDS011;44436;52.872;6.520;2022-07-23T11:39:22;2.30;;;1.20;;
58665;SDS011;44436;52.872;6.520;2022-07-23T11:41:52;4.20;;;1.02;;
58665;SDS011;44436;52.872;6.520;2022-07-23T11:44:27;3.63;;;1.33;;
58665;SDS011;44436;52.872;6.520;2022-07-23T11:46:57;3.50;;;1.48;;
58665;SDS011;44436;52.872;6.520;2022-07-23T11:49:24;2.70;;;1.00;;
58665;SDS011;44436;52.872;6.520;2022-07-23T11:52:05;1.63;;;1.00;;
58665;SDS011;44436;52.872;6.520;2022-07-23T11:54:33;1.92;;;1.08;;
58665;SDS011;44436;52.872;6.520;2022-07-23T11:57:00;3.20;;;1.10;;
58665;SDS011;44436;52.872;6.520;2022-07-23T11:59:29;1.65;;;1.00;;
58665;SDS011;44436;52.872;6.520;2022-07-23T12:02:00;3.47;;;0.98;;
58665;SDS011;44436;52.872;6.520;2022-07-23T12:04:40;2.08;;;1.15;;
58665;SDS011;44436;52.872;6.520;2022-07-23T12:10:05;4.00;;;1.38;;
58665;SDS011;44436;52.872;6.520;2022-07-23T12:12:38;3.53;;;1.48;;
58665;SDS011;44436;52.872;6.520;2022-07-23T12:15:06;16.27;;;2.17;;
58665;SDS011;44436;52.872;6.520;2022-07-23T12:17:33;2.38;;;1.10;;
58665;SDS011;44436;52.872;6.520;2022-07-23T12:20:02;2.90;;;1.00;;
58665;SDS011;44436;52.872;6.520;2022-07-23T12:22:37;2.53;;;1.25;;
58665;SDS011;44436;52.872;6.520;2022-07-23T12:25:06;3.35;;;1.20;;
58665;SDS011;44436;52.872;6.520;2022-07-23T12:27:34;2.15;;;1.08;;
58665;SDS011;44436;52.872;6.520;2022-07-23T12:32:46;3.03;;;1.20;;
58665;SDS011;44436;52.872;6.520;2022-07-23T12:35:13;3.33;;;1.20;;
58665;SDS011;44436;52.872;6.520;2022-07-23T12:37:40;3.65;;;1.20;;
58665;SDS011;44436;52.872;6.520;2022-07-23T12:42:53;4.63;;;1.42;;
58665;SDS011;44436;52.872;6.520;2022-07-23T12:45:20;2.67;;;1.60;;
58665;SDS011;44436;52.872;6.520;2022-07-23T12:47:56;1.77;;;1.30;;
58665;SDS011;44436;52.872;6.520;2022-07-23T12:53:05;2.50;;;1.57;;
58665;SDS011;44436;52.872;6.520;2022-07-23T12:55:39;4.03;;;1.45;;
58665;SDS011;44436;52.872;6.520;2022-07-23T13:03:29;2.28;;;1.60;;
58665;SDS011;44436;52.872;6.520;2022-07-23T13:05:58;3.47;;;1.33;;
58665;SDS011;44436;52.872;6.520;2022-07-23T13:08:24;1.95;;;1.40;;
58665;SDS011;44436;52.872;6.520;2022-07-23T13:10:51;2.65;;;1.10;;
58665;SDS011;44436;52.872;6.520;2022-07-23T13:13:22;3.45;;;1.40;;
58665;SDS011;44436;52.872;6.520;2022-07-23T13:15:49;2.13;;;1.10;;
58665;SDS011;44436;52.872;6.520;2022-07-23T13:18:14;2.40;;;1.38;;
58665;SDS011;44436;52.872;6.520;2022-07-23T13:20:42;2.30;;;1.45;;
58665;SDS011;44436;52.872;6.520;2022-07-23T13:23:08;2.90;;;1.20;;
58665;SDS011;44436;52.872;6.520;2022-07-23T13:25:34;4.20;;;1.35;;
58665;SDS011;44436;52.872;6.520;2022-07-23T13:28:00;1.73;;;1.10;;
58665;SDS011;44436;52.872;6.520;2022-07-23T13:30:26;3.28;;;1.40;;
58665;SDS011;44436;52.872;6.520;2022-07-23T13:32:51;3.70;;;1.40;;
58665;SDS011;44436;52.872;6.520;2022-07-23T13:35:17;1.98;;;1.20;;
58665;SDS011;44436;52.872;6.520;2022-07-23T13:37:43;5.75;;;1.60;;
58665;SDS011;44436;52.872;6.520;2022-07-23T13:40:09;3.97;;;1.23;;
58665;SDS011;44436;52.872;6.520;2022-07-23T13:42:35;3.58;;;1.20;;
58665;SDS011;44436;52.872;6.520;2022-07-23T13:45:03;1.27;;;1.13;;
58665;SDS011;44436;52.872;6.520;2022-07-23T13:47:29;2.08;;;1.20;;
58665;SDS011;44436;52.872;6.520;2022-07-23T13:49:55;2.47;;;1.10;;
58665;SDS011;44436;52.872;6.520;2022-07-23T13:52:20;2.03;;;1.30;;
58665;SDS011;44436;52.872;6.520;2022-07-23T13:54:46;3.63;;;1.40;;
58665;SDS011;44436;52.872;6.520;2022-07-23T13:57:12;1.80;;;1.13;;
58665;SDS011;44436;52.872;6.520;2022-07-23T13:59:38;1.75;;;1.17;;
58665;SDS011;44436;52.872;6.520;2022-07-23T14:02:03;1.90;;;1.10;;
58665;SDS011;44436;52.872;6.520;2022-07-23T14:04:29;2.67;;;1.20;;
58665;SDS011;44436;52.872;6.520;2022-07-23T14:06:55;2.08;;;1.20;;
58665;SDS011;44436;52.872;6.520;2022-07-23T14:09:21;1.73;;;1.40;;
58665;SDS011;44436;52.872;6.520;2022-07-23T14:11:48;1.30;;;0.88;;
58665;SDS011;44436;52.872;6.520;2022-07-23T14:14:15;2.42;;;1.10;;
58665;SDS011;44436;52.872;6.520;2022-07-23T14:16:40;1.77;;;1.08;;
58665;SDS011;44436;52.872;6.520;2022-07-23T14:19:06;2.33;;;1.20;;
58665;SDS011;44436;52.872;6.520;2022-07-23T14:21:32;3.17;;;1.10;;
58665;SDS011;44436;52.872;6.520;2022-07-23T14:23:57;3.53;;;1.35;;
58665;SDS011;44436;52.872;6.520;2022-07-23T14:26:23;3.40;;;1.15;;
58665;SDS011;44436;52.872;6.520;2022-07-23T14:28:49;1.77;;;1.45;;
58665;SDS011;44436;52.872;6.520;2022-07-23T14:31:14;3.25;;;0.90;;
58665;SDS011;44436;52.872;6.520;2022-07-23T14:33:40;1.58;;;1.08;;
58665;SDS011;44436;52.872;6.520;2022-07-23T14:36:06;1.00;;;0.90;;
58665;SDS011;44436;52.872;6.520;2022-07-23T14:38:31;3.20;;;1.00;;
58665;SDS011;44436;52.872;6.520;2022-07-23T14:40:57;2.42;;;1.00;;
58665;SDS011;44436;52.872;6.520;2022-07-23T14:43:23;1.55;;;1.00;;
58665;SDS011;44436;52.872;6.520;2022-07-23T14:45:48;4.28;;;1.20;;
58665;SDS011;44436;52.872;6.520;2022-07-23T14:48:14;1.83;;;0.95;;
58665;SDS011;44436;52.872;6.520;2022-07-23T14:50:40;2.78;;;1.00;;
58665;SDS011;44436;52.872;6.520;2022-07-23T14:53:05;2.60;;;1.13;;
58665;SDS011;44436;52.872;6.520;2022-07-23T14:55:31;2.97;;;1.10;;
58665;SDS011;44436;52.872;6.520;2022-07-23T14:57:57;1.63;;;1.30;;
58665;SDS011;44436;52.872;6.520;2022-07-23T15:00:23;1.52;;;1.10;;
58665;SDS011;44436;52.872;6.520;2022-07-23T15:02:49;2.03;;;1.00;;
58665;SDS011;44436;52.872;6.520;2022-07-23T15:05:16;2.83;;;1.13;;
58665;SDS011;44436;52.872;6.520;2022-07-23T15:07:41;2.13;;;1.17;;
58665;SDS011;44436;52.872;6.520;2022-07-23T15:10:07;2.00;;;1.10;;
58665;SDS011;44436;52.872;6.520;2022-07-23T15:12:33;2.15;;;1.25;;
58665;SDS011;44436;52.872;6.520;2022-07-23T15:14:58;1.48;;;0.82;;
58665;SDS011;44436;52.872;6.520;2022-07-23T15:17:24;2.88;;;1.00;;
58665;SDS011;44436;52.872;6.520;2022-07-23T15:19:50;2.13;;;1.00;;
58665;SDS011;44436;52.872;6.520;2022-07-23T15:22:16;1.92;;;1.20;;
58665;SDS011;44436;52.872;6.520;2022-07-23T15:24:42;1.52;;;1.20;;
58665;SDS011;44436;52.872;6.520;2022-07-23T15:27:08;2.35;;;1.40;;
58665;SDS011;44436;52.872;6.520;2022-07-23T15:29:33;1.80;;;1.30;;
58665;SDS011;44436;52.872;6.520;2022-07-23T15:31:59;2.20;;;1.00;;
58665;SDS011;44436;52.872;6.520;2022-07-23T15:34:26;3.95;;;1.27;;
58665;SDS011;44436;52.872;6.520;2022-07-23T15:36:51;2.50;;;1.30;;
58665;SDS011;44436;52.872;6.520;2022-07-23T15:39:17;3.80;;;1.30;;
58665;SDS011;44436;52.872;6.520;2022-07-23T15:41:43;2.80;;;1.17;;
58665;SDS011;44436;52.872;6.520;2022-07-23T15:44:09;3.85;;;1.10;;